sensor_id;sensor_type;location;lat;lon;timestamp;P1;durP1;ratioP1;P2;durP2;ratioP2
76589;SDS011;65471;55.908;37.880;2023-08-21T00:01:29;18.85;;;14.13;;
76589;SDS011;65471;55.908;37.880;2023-08-21T00:03:56;27.45;;;14.02;;
76589;SDS011;65471;55.908;37.880;2023-08-21T00:06:22;23.95;;;14.07;;
76589;SDS011;65471;55.908;37.880;2023-08-21T00:08:49;24.13;;;12.95;;
76589;SDS011;65471;55.908;37.880;2023-08-21T00:11:16;16.17;;;12.50;;
76589;SDS011;65471;55.908;37.880;2023-08-21T00:13:43;20.90;;;11.82;;
76589;SDS011;65471;55.908;37.880;2023-08-21T00:16:11;57.70;;;26.83;;
76589;SDS011;65471;55.908;37.880;2023-08-21T00:18:38;16.77;;;12.57;;
76589;SDS011;65471;55.908;37.880;2023-08-21T00:21:05;33.33;;;15.05;;
76589;SDS011;65471;55.908;37.880;2023-08-21T00:23:33;16.15;;;12.73;;
76589;SDS011;65471;55.908;37.880;2023-08-21T00:26:00;20.42;;;12.32;;
76589;SDS011;65471;55.908;37.880;2023-08-21T00:28:27;17.85;;;12.55;;
76589;SDS011;65471;55.908;37.880;2023-08-21T00:31:02;16.20;;;12.15;;
76589;SDS011;65471;55.908;37.880;2023-08-21T00:33:31;19.52;;;11.32;;
76589;SDS011;65471;55.908;37.880;2023-08-21T00:35:59;17.50;;;11.48;;
76589;SDS011;65471;55.908;37.880;2023-08-21T00:38:26;15.93;;;11.60;;
76589;SDS011;65471;55.908;37.880;2023-08-21T00:40:53;24.83;;;11.68;;
76589;SDS011;65471;55.908;37.880;2023-08-21T00:43:20;26.65;;;12.13;;
76589;SDS011;65471;55.908;37.880;2023-08-21T00:45:48;19.27;;;11.38;;
76589;SDS011;65471;55.908;37.880;2023-08-21T00:48:17;22.05;;;12.85;;
76589;SDS011;65471;55.908;37.880;2023-08-21T00:50:45;22.48;;;12.98;;
76589;SDS011;65471;55.908;37.880;2023-08-21T00:53:12;21.33;;;11.98;;
76589;SDS011;65471;55.908;37.880;2023-08-21T00:55:40;27.13;;;12.43;;
76589;SDS011;65471;55.908;37.880;2023-08-21T00:58:08;23.67;;;14.27;;
76589;SDS011;65471;55.908;37.880;2023-08-21T01:00:41;29.48;;;13.80;;
76589;SDS011;65471;55.908;37.880;2023-08-21T01:03:09;24.45;;;13.13;;
76589;SDS011;65471;55.908;37.880;2023-08-21T01:05:36;14.30;;;11.55;;
76589;SDS011;65471;55.908;37.880;2023-08-21T01:08:05;23.90;;;12.60;;
76589;SDS011;65471;55.908;37.880;2023-08-21T01:10:54;23.33;;;11.52;;
76589;SDS011;65471;55.908;37.880;2023-08-21T01:13:34;24.73;;;13.20;;
76589;SDS011;65471;55.908;37.880;2023-08-21T01:16:03;30.37;;;13.60;;
76589;SDS011;65471;55.908;37.880;2023-08-21T01:18:32;21.25;;;13.57;;
76589;SDS011;65471;55.908;37.880;2023-08-21T01:21:02;26.45;;;12.77;;
76589;SDS011;65471;55.908;37.880;2023-08-21T01:23:34;18.48;;;12.88;;
76589;SDS011;65471;55.908;37.880;2023-08-21T01:26:02;19.08;;;13.35;;
76589;SDS011;65471;55.908;37.880;2023-08-21T01:28:31;27.17;;;13.30;;
76589;SDS011;65471;55.908;37.880;2023-08-21T01:31:09;26.65;;;13.02;;
76589;SDS011;65471;55.908;37.880;2023-08-21T01:33:44;26.98;;;13.70;;
76589;SDS011;65471;55.908;37.880;2023-08-21T01:36:12;28.58;;;13.93;;
76589;SDS011;65471;55.908;37.880;2023-08-21T01:38:40;32.40;;;14.80;;
76589;SDS011;65471;55.908;37.880;2023-08-21T01:41:08;21.38;;;12.90;;
76589;SDS011;65471;55.908;37.880;2023-08-21T01:43:35;24.45;;;12.98;;
76589;SDS011;65471;55.908;37.880;2023-08-21T01:46:02;30.73;;;13.13;;
76589;SDS011;65471;55.908;37.880;2023-08-21T01:48:30;27.45;;;13.15;;
76589;SDS011;65471;55.908;37.880;2023-08-21T01:50:57;20.15;;;12.50;;
76589;SDS011;65471;55.908;37.880;2023-08-21T01:53:24;20.75;;;13.00;;
76589;SDS011;65471;55.908;37.880;2023-08-21T01:55:51;19.42;;;13.10;;
76589;SDS011;65471;55.908;37.880;2023-08-21T01:58:17;23.75;;;13.55;;
76589;SDS011;65471;55.908;37.880;2023-08-21T02:00:47;26.00;;;14.02;;
76589;SDS011;65471;55.908;37.880;2023-08-21T02:03:14;22.25;;;12.60;;
76589;SDS011;65471;55.908;37.880;2023-08-21T02:05:42;25.80;;;13.55;;
76589;SDS011;65471;55.908;37.880;2023-08-21T02:08:11;29.55;;;13.73;;
76589;SDS011;65471;55.908;37.880;2023-08-21T02:10:51;31.10;;;13.80;;
76589;SDS011;65471;55.908;37.880;2023-08-21T02:13:19;23.15;;;13.30;;
76589;SDS011;65471;55.908;37.880;2023-08-21T02:15:46;17.05;;;13.05;;
76589;SDS011;65471;55.908;37.880;2023-08-21T02:18:33;23.80;;;14.43;;
76589;SDS011;65471;55.908;37.880;2023-08-21T02:21:01;22.45;;;14.07;;
76589;SDS011;65471;55.908;37.880;2023-08-21T02:23:29;22.67;;;12.13;;
76589;SDS011;65471;55.908;37.880;2023-08-21T02:25:56;24.70;;;12.25;;
76589;SDS011;65471;55.908;37.880;2023-08-21T02:28:23;24.85;;;12.30;;
76589;SDS011;65471;55.908;37.880;2023-08-21T02:30:50;15.00;;;11.63;;
76589;SDS011;65471;55.908;37.880;2023-08-21T02:33:17;15.50;;;10.82;;
76589;SDS011;65471;55.908;37.880;2023-08-21T02:35:44;15.73;;;10.50;;
76589;SDS011;65471;55.908;37.880;2023-08-21T02:38:11;39.88;;;18.33;;
76589;SDS011;65471;55.908;37.880;2023-08-21T02:40:37;18.15;;;11.88;;
76589;SDS011;65471;55.908;37.880;2023-08-21T02:43:04;13.20;;;9.13;;
76589;SDS011;65471;55.908;37.880;2023-08-21T02:45:31;17.15;;;8.93;;
76589;SDS011;65471;55.908;37.880;2023-08-21T02:47:58;18.20;;;9.95;;
76589;SDS011;65471;55.908;37.880;2023-08-21T02:50:25;24.20;;;10.25;;
76589;SDS011;65471;55.908;37.880;2023-08-21T02:52:52;30.23;;;10.18;;
76589;SDS011;65471;55.908;37.880;2023-08-21T02:55:19;29.48;;;9.00;;
76589;SDS011;65471;55.908;37.880;2023-08-21T02:57:47;23.00;;;9.60;;
76589;SDS011;65471;55.908;37.880;2023-08-21T03:00:14;18.40;;;8.70;;
76589;SDS011;65471;55.908;37.880;2023-08-21T03:02:41;13.68;;;8.73;;
76589;SDS011;65471;55.908;37.880;2023-08-21T03:05:10;19.65;;;9.20;;
76589;SDS011;65471;55.908;37.880;2023-08-21T03:07:37;14.80;;;8.35;;
76589;SDS011;65471;55.908;37.880;2023-08-21T03:10:06;13.75;;;8.38;;
76589;SDS011;65471;55.908;37.880;2023-08-21T03:12:34;17.85;;;8.80;;
76589;SDS011;65471;55.908;37.880;2023-08-21T03:15:01;18.88;;;9.07;;
76589;SDS011;65471;55.908;37.880;2023-08-21T03:17:31;16.52;;;9.05;;
76589;SDS011;65471;55.908;37.880;2023-08-21T03:19:58;23.58;;;8.50;;
76589;SDS011;65471;55.908;37.880;2023-08-21T03:22:25;19.33;;;8.40;;
76589;SDS011;65471;55.908;37.880;2023-08-21T03:24:52;15.15;;;9.13;;
76589;SDS011;65471;55.908;37.880;2023-08-21T03:27:19;14.35;;;8.63;;
76589;SDS011;65471;55.908;37.880;2023-08-21T03:29:46;15.95;;;8.80;;
76589;SDS011;65471;55.908;37.880;2023-08-21T03:32:15;15.95;;;8.73;;
76589;SDS011;65471;55.908;37.880;2023-08-21T03:34:43;25.63;;;9.77;;
76589;SDS011;65471;55.908;37.880;2023-08-21T03:37:10;21.90;;;8.38;;
76589;SDS011;65471;55.908;37.880;2023-08-21T03:39:37;9.98;;;7.93;;
76589;SDS011;65471;55.908;37.880;2023-08-21T03:42:05;13.77;;;7.65;;
76589;SDS011;65471;55.908;37.880;2023-08-21T03:44:32;8.32;;;7.35;;
76589;SDS011;65471;55.908;37.880;2023-08-21T03:47:00;7.88;;;6.30;;
76589;SDS011;65471;55.908;37.880;2023-08-21T03:49:27;17.80;;;7.45;;
76589;SDS011;65471;55.908;37.880;2023-08-21T03:51:53;9.25;;;6.50;;
76589;SDS011;65471;55.908;37.880;2023-08-21T03:54:20;15.60;;;6.38;;
76589;SDS011;65471;55.908;37.880;2023-08-21T03:56:47;16.60;;;6.82;;
76589;SDS011;65471;55.908;37.880;2023-08-21T03:59:14;10.20;;;7.75;;
76589;SDS011;65471;55.908;37.880;2023-08-21T04:01:41;16.00;;;5.82;;
76589;SDS011;65471;55.908;37.880;2023-08-21T04:04:08;28.75;;;11.77;;
76589;SDS011;65471;55.908;37.880;2023-08-21T04:06:35;27.13;;;10.70;;
76589;SDS011;65471;55.908;37.880;2023-08-21T04:09:02;11.52;;;5.47;;
76589;SDS011;65471;55.908;37.880;2023-08-21T04:11:32;13.93;;;7.35;;
76589;SDS011;65471;55.908;37.880;2023-08-21T04:13:59;15.85;;;5.45;;
76589;SDS011;65471;55.908;37.880;2023-08-21T04:16:27;11.15;;;5.78;;
76589;SDS011;65471;55.908;37.880;2023-08-21T04:18:55;5.90;;;4.80;;
76589;SDS011;65471;55.908;37.880;2023-08-21T04:21:22;16.55;;;5.20;;
76589;SDS011;65471;55.908;37.880;2023-08-21T04:23:50;11.65;;;4.82;;
76589;SDS011;65471;55.908;37.880;2023-08-21T04:26:17;8.23;;;5.85;;
76589;SDS011;65471;55.908;37.880;2023-08-21T04:28:45;10.73;;;5.57;;
76589;SDS011;65471;55.908;37.880;2023-08-21T04:31:12;8.18;;;4.97;;
76589;SDS011;65471;55.908;37.880;2023-08-21T04:33:40;13.27;;;5.18;;
76589;SDS011;65471;55.908;37.880;2023-08-21T04:36:07;21.90;;;5.68;;
76589;SDS011;65471;55.908;37.880;2023-08-21T04:38:34;11.38;;;5.22;;
76589;SDS011;65471;55.908;37.880;2023-08-21T04:41:07;17.05;;;5.03;;
76589;SDS011;65471;55.908;37.880;2023-08-21T04:43:34;9.00;;;5.13;;
76589;SDS011;65471;55.908;37.880;2023-08-21T04:46:01;7.82;;;4.90;;
76589;SDS011;65471;55.908;37.880;2023-08-21T04:48:29;4.90;;;4.40;;
76589;SDS011;65471;55.908;37.880;2023-08-21T04:50:56;6.97;;;4.20;;
76589;SDS011;65471;55.908;37.880;2023-08-21T04:53:23;8.18;;;4.85;;
76589;SDS011;65471;55.908;37.880;2023-08-21T04:55:50;10.85;;;4.75;;
76589;SDS011;65471;55.908;37.880;2023-08-21T04:58:17;10.88;;;5.93;;
76589;SDS011;65471;55.908;37.880;2023-08-21T05:00:44;27.13;;;5.20;;
76589;SDS011;65471;55.908;37.880;2023-08-21T05:03:12;329.30;;;13.88;;
76589;SDS011;65471;55.908;37.880;2023-08-21T05:05:39;11.90;;;4.45;;
76589;SDS011;65471;55.908;37.880;2023-08-21T05:08:06;21.35;;;4.53;;
76589;SDS011;65471;55.908;37.880;2023-08-21T05:10:33;7.95;;;4.15;;
76589;SDS011;65471;55.908;37.880;2023-08-21T05:13:00;5.68;;;4.10;;
76589;SDS011;65471;55.908;37.880;2023-08-21T05:15:27;10.90;;;4.60;;
76589;SDS011;65471;55.908;37.880;2023-08-21T05:17:54;78.05;;;5.65;;
76589;SDS011;65471;55.908;37.880;2023-08-21T05:20:21;19.58;;;4.10;;
76589;SDS011;65471;55.908;37.880;2023-08-21T05:22:48;11.68;;;4.43;;
76589;SDS011;65471;55.908;37.880;2023-08-21T05:25:15;14.57;;;4.43;;
76589;SDS011;65471;55.908;37.880;2023-08-21T05:27:42;13.00;;;3.78;;
76589;SDS011;65471;55.908;37.880;2023-08-21T05:30:09;5.18;;;4.15;;
76589;SDS011;65471;55.908;37.880;2023-08-21T05:32:38;5.20;;;3.83;;
76589;SDS011;65471;55.908;37.880;2023-08-21T05:35:06;12.73;;;3.57;;
76589;SDS011;65471;55.908;37.880;2023-08-21T05:37:34;10.85;;;3.95;;
76589;SDS011;65471;55.908;37.880;2023-08-21T05:40:02;55.70;;;5.22;;
76589;SDS011;65471;55.908;37.880;2023-08-21T05:42:30;4.32;;;3.63;;
76589;SDS011;65471;55.908;37.880;2023-08-21T05:44:57;6.13;;;3.60;;
76589;SDS011;65471;55.908;37.880;2023-08-21T05:47:24;4.25;;;3.40;;
76589;SDS011;65471;55.908;37.880;2023-08-21T05:52:20;15.95;;;4.80;;
76589;SDS011;65471;55.908;37.880;2023-08-21T05:54:49;11.60;;;4.10;;
76589;SDS011;65471;55.908;37.880;2023-08-21T05:57:16;4.00;;;3.78;;
76589;SDS011;65471;55.908;37.880;2023-08-21T05:59:46;15.55;;;4.15;;
76589;SDS011;65471;55.908;37.880;2023-08-21T06:02:14;5.55;;;3.58;;
76589;SDS011;65471;55.908;37.880;2023-08-21T06:04:41;8.20;;;3.63;;
76589;SDS011;65471;55.908;37.880;2023-08-21T06:07:09;5.88;;;3.13;;
76589;SDS011;65471;55.908;37.880;2023-08-21T06:09:36;6.43;;;3.70;;
76589;SDS011;65471;55.908;37.880;2023-08-21T06:12:07;7.82;;;3.30;;
76589;SDS011;65471;55.908;37.880;2023-08-21T06:14:34;11.40;;;3.67;;
76589;SDS011;65471;55.908;37.880;2023-08-21T06:17:02;8.30;;;3.17;;
76589;SDS011;65471;55.908;37.880;2023-08-21T06:19:30;7.03;;;3.30;;
76589;SDS011;65471;55.908;37.880;2023-08-21T06:22:02;6.22;;;3.38;;
76589;SDS011;65471;55.908;37.880;2023-08-21T06:24:31;9.15;;;3.40;;
76589;SDS011;65471;55.908;37.880;2023-08-21T06:26:58;15.50;;;3.22;;
76589;SDS011;65471;55.908;37.880;2023-08-21T06:29:25;91.65;;;5.68;;
76589;SDS011;65471;55.908;37.880;2023-08-21T06:31:52;11.38;;;3.72;;
76589;SDS011;65471;55.908;37.880;2023-08-21T06:34:18;21.55;;;3.75;;
76589;SDS011;65471;55.908;37.880;2023-08-21T06:36:45;7.28;;;3.90;;
76589;SDS011;65471;55.908;37.880;2023-08-21T06:39:12;3.90;;;3.60;;
76589;SDS011;65471;55.908;37.880;2023-08-21T06:41:39;4.35;;;3.17;;
76589;SDS011;65471;55.908;37.880;2023-08-21T06:44:06;6.10;;;3.15;;
76589;SDS011;65471;55.908;37.880;2023-08-21T06:46:33;7.93;;;3.60;;
76589;SDS011;65471;55.908;37.880;2023-08-21T06:49:00;37.27;;;3.60;;
76589;SDS011;65471;55.908;37.880;2023-08-21T06:51:27;34.72;;;4.03;;
76589;SDS011;65471;55.908;37.880;2023-08-21T06:53:54;5.47;;;3.25;;
76589;SDS011;65471;55.908;37.880;2023-08-21T06:56:21;8.10;;;3.00;;
76589;SDS011;65471;55.908;37.880;2023-08-21T06:58:48;5.65;;;3.08;;
76589;SDS011;65471;55.908;37.880;2023-08-21T07:01:15;9.02;;;2.80;;
76589;SDS011;65471;55.908;37.880;2023-08-21T07:03:42;5.20;;;2.60;;
76589;SDS011;65471;55.908;37.880;2023-08-21T07:06:09;15.90;;;3.20;;
76589;SDS011;65471;55.908;37.880;2023-08-21T07:08:36;10.27;;;3.40;;
76589;SDS011;65471;55.908;37.880;2023-08-21T07:11:05;9.05;;;3.25;;
76589;SDS011;65471;55.908;37.880;2023-08-21T07:13:31;6.65;;;2.65;;
76589;SDS011;65471;55.908;37.880;2023-08-21T07:15:58;5.93;;;2.78;;
76589;SDS011;65471;55.908;37.880;2023-08-21T07:18:31;4.68;;;2.92;;
76589;SDS011;65471;55.908;37.880;2023-08-21T07:20:59;9.68;;;2.88;;
76589;SDS011;65471;55.908;37.880;2023-08-21T07:23:27;2.97;;;2.78;;
76589;SDS011;65471;55.908;37.880;2023-08-21T07:25:54;41.42;;;3.58;;
76589;SDS011;65471;55.908;37.880;2023-08-21T07:28:21;18.88;;;4.05;;
76589;SDS011;65471;55.908;37.880;2023-08-21T07:30:53;12.05;;;3.35;;
76589;SDS011;65471;55.908;37.880;2023-08-21T07:33:21;6.07;;;3.88;;
76589;SDS011;65471;55.908;37.880;2023-08-21T07:36:02;9.00;;;3.20;;
76589;SDS011;65471;55.908;37.880;2023-08-21T13:40:23;7.25;;;2.75;;
76589;SDS011;65471;55.908;37.880;2023-08-21T13:42:52;15.70;;;3.03;;
76589;SDS011;65471;55.908;37.880;2023-08-21T13:45:19;3.53;;;2.40;;
76589;SDS011;65471;55.908;37.880;2023-08-21T13:47:46;7.88;;;2.88;;
76589;SDS011;65471;55.908;37.880;2023-08-21T13:50:16;9.13;;;3.25;;
76589;SDS011;65471;55.908;37.880;2023-08-21T13:52:45;20.33;;;2.58;;
76589;SDS011;65471;55.908;37.880;2023-08-21T13:55:13;10.75;;;3.00;;
76589;SDS011;65471;55.908;37.880;2023-08-21T13:57:41;25.23;;;5.43;;
76589;SDS011;65471;55.908;37.880;2023-08-21T14:00:08;11.13;;;4.22;;
76589;SDS011;65471;55.908;37.880;2023-08-21T14:02:40;17.35;;;3.90;;
76589;SDS011;65471;55.908;37.880;2023-08-21T14:05:08;10.80;;;4.00;;
76589;SDS011;65471;55.908;37.880;2023-08-21T14:07:37;11.25;;;2.65;;
76589;SDS011;65471;55.908;37.880;2023-08-21T14:10:06;6.20;;;2.83;;
76589;SDS011;65471;55.908;37.880;2023-08-21T14:12:34;5.75;;;2.72;;
76589;SDS011;65471;55.908;37.880;2023-08-21T14:15:03;6.13;;;2.40;;
76589;SDS011;65471;55.908;37.880;2023-08-21T14:17:32;2.95;;;2.75;;
76589;SDS011;65471;55.908;37.880;2023-08-21T14:19:59;29.00;;;19.15;;
76589;SDS011;65471;55.908;37.880;2023-08-21T14:22:26;37.70;;;22.27;;
76589;SDS011;65471;55.908;37.880;2023-08-21T14:24:53;30.83;;;12.38;;
76589;SDS011;65471;55.908;37.880;2023-08-21T14:27:20;18.33;;;7.20;;
76589;SDS011;65471;55.908;37.880;2023-08-21T14:29:47;85.90;;;28.17;;
76589;SDS011;65471;55.908;37.880;2023-08-21T14:32:14;100.13;;;41.67;;
76589;SDS011;65471;55.908;37.880;2023-08-21T14:34:41;51.80;;;12.68;;
76589;SDS011;65471;55.908;37.880;2023-08-21T14:37:08;43.70;;;20.65;;
76589;SDS011;65471;55.908;37.880;2023-08-21T14:39:35;13.13;;;4.78;;
76589;SDS011;65471;55.908;37.880;2023-08-21T14:42:02;12.23;;;7.53;;
76589;SDS011;65471;55.908;37.880;2023-08-21T14:44:29;15.43;;;3.47;;
76589;SDS011;65471;55.908;37.880;2023-08-21T14:46:56;15.90;;;4.45;;
76589;SDS011;65471;55.908;37.880;2023-08-21T14:49:29;6.22;;;4.68;;
76589;SDS011;65471;55.908;37.880;2023-08-21T14:51:55;9.48;;;4.43;;
76589;SDS011;65471;55.908;37.880;2023-08-21T14:54:22;3.95;;;3.45;;
76589;SDS011;65471;55.908;37.880;2023-08-21T14:56:49;8.50;;;3.67;;
76589;SDS011;65471;55.908;37.880;2023-08-21T14:59:17;7.32;;;3.90;;
76589;SDS011;65471;55.908;37.880;2023-08-21T15:01:43;5.60;;;3.40;;
76589;SDS011;65471;55.908;37.880;2023-08-21T15:04:10;3.58;;;3.13;;
76589;SDS011;65471;55.908;37.880;2023-08-21T15:09:06;9.57;;;4.88;;
76589;SDS011;65471;55.908;37.880;2023-08-21T15:11:33;13.23;;;4.43;;
76589;SDS011;65471;55.908;37.880;2023-08-21T15:14:01;29.80;;;12.40;;
76589;SDS011;65471;55.908;37.880;2023-08-21T15:16:30;15.80;;;7.03;;
76589;SDS011;65471;55.908;37.880;2023-08-21T15:18:57;14.57;;;7.32;;
76589;SDS011;65471;55.908;37.880;2023-08-21T15:21:25;3.92;;;3.50;;
76589;SDS011;65471;55.908;37.880;2023-08-21T15:23:52;7.15;;;3.45;;
76589;SDS011;65471;55.908;37.880;2023-08-21T15:26:19;4.75;;;4.03;;
76589;SDS011;65471;55.908;37.880;2023-08-21T15:28:47;7.22;;;3.92;;
76589;SDS011;65471;55.908;37.880;2023-08-21T15:31:18;16.40;;;5.80;;
76589;SDS011;65471;55.908;37.880;2023-08-21T15:33:46;30.70;;;7.10;;
76589;SDS011;65471;55.908;37.880;2023-08-21T15:36:14;12.57;;;5.43;;
76589;SDS011;65471;55.908;37.880;2023-08-21T15:38:41;13.05;;;3.80;;
76589;SDS011;65471;55.908;37.880;2023-08-21T15:41:08;7.38;;;3.60;;
76589;SDS011;65471;55.908;37.880;2023-08-21T15:43:35;23.90;;;3.58;;
76589;SDS011;65471;55.908;37.880;2023-08-21T15:46:02;11.90;;;4.50;;
76589;SDS011;65471;55.908;37.880;2023-08-21T15:48:31;18.23;;;5.53;;
76589;SDS011;65471;55.908;37.880;2023-08-21T15:50:58;14.00;;;8.02;;
76589;SDS011;65471;55.908;37.880;2023-08-21T15:53:25;18.67;;;7.75;;
76589;SDS011;65471;55.908;37.880;2023-08-21T15:55:52;30.17;;;8.15;;
76589;SDS011;65471;55.908;37.880;2023-08-21T15:58:19;25.60;;;11.38;;
76589;SDS011;65471;55.908;37.880;2023-08-21T16:00:46;40.55;;;14.90;;
76589;SDS011;65471;55.908;37.880;2023-08-21T16:03:13;47.65;;;15.00;;
76589;SDS011;65471;55.908;37.880;2023-08-21T16:05:41;41.95;;;12.15;;
76589;SDS011;65471;55.908;37.880;2023-08-21T16:08:08;42.72;;;11.90;;
76589;SDS011;65471;55.908;37.880;2023-08-21T16:10:35;34.03;;;11.05;;
76589;SDS011;65471;55.908;37.880;2023-08-21T16:13:03;38.60;;;12.35;;
76589;SDS011;65471;55.908;37.880;2023-08-21T16:15:30;33.65;;;13.38;;
76589;SDS011;65471;55.908;37.880;2023-08-21T16:17:57;36.13;;;10.02;;
76589;SDS011;65471;55.908;37.880;2023-08-21T16:20:24;44.05;;;9.45;;
76589;SDS011;65471;55.908;37.880;2023-08-21T16:22:54;46.13;;;9.20;;
76589;SDS011;65471;55.908;37.880;2023-08-21T16:25:21;66.50;;;10.27;;
76589;SDS011;65471;55.908;37.880;2023-08-21T16:27:48;50.13;;;9.27;;
76589;SDS011;65471;55.908;37.880;2023-08-21T16:30:15;33.53;;;10.38;;
76589;SDS011;65471;55.908;37.880;2023-08-21T16:32:42;39.25;;;9.13;;
76589;SDS011;65471;55.908;37.880;2023-08-21T16:35:09;55.25;;;10.73;;
76589;SDS011;65471;55.908;37.880;2023-08-21T16:37:36;41.47;;;9.52;;
76589;SDS011;65471;55.908;37.880;2023-08-21T16:40:04;45.83;;;8.65;;
76589;SDS011;65471;55.908;37.880;2023-08-21T16:42:35;43.03;;;8.88;;
76589;SDS011;65471;55.908;37.880;2023-08-21T16:45:02;29.63;;;7.97;;
76589;SDS011;65471;55.908;37.880;2023-08-21T16:47:30;39.28;;;8.98;;
76589;SDS011;65471;55.908;37.880;2023-08-21T16:49:57;29.02;;;9.70;;
76589;SDS011;65471;55.908;37.880;2023-08-21T16:52:29;44.08;;;12.13;;
76589;SDS011;65471;55.908;37.880;2023-08-21T16:54:56;57.33;;;16.48;;
76589;SDS011;65471;55.908;37.880;2023-08-21T16:57:23;65.72;;;19.90;;
76589;SDS011;65471;55.908;37.880;2023-08-21T16:59:50;74.70;;;21.85;;
76589;SDS011;65471;55.908;37.880;2023-08-21T17:02:20;96.65;;;22.92;;
76589;SDS011;65471;55.908;37.880;2023-08-21T17:04:48;87.63;;;23.05;;
76589;SDS011;65471;55.908;37.880;2023-08-21T17:07:15;83.85;;;21.42;;
76589;SDS011;65471;55.908;37.880;2023-08-21T17:09:44;85.18;;;25.20;;
76589;SDS011;65471;55.908;37.880;2023-08-21T17:12:14;80.47;;;24.95;;
76589;SDS011;65471;55.908;37.880;2023-08-21T17:14:41;92.90;;;23.58;;
76589;SDS011;65471;55.908;37.880;2023-08-21T17:17:08;105.55;;;23.33;;
76589;SDS011;65471;55.908;37.880;2023-08-21T17:19:35;94.70;;;24.25;;
76589;SDS011;65471;55.908;37.880;2023-08-21T17:22:02;95.20;;;25.17;;
76589;SDS011;65471;55.908;37.880;2023-08-21T17:24:29;89.40;;;26.38;;
76589;SDS011;65471;55.908;37.880;2023-08-21T17:26:56;122.93;;;37.58;;
76589;SDS011;65471;55.908;37.880;2023-08-21T17:29:27;155.68;;;47.40;;
76589;SDS011;65471;55.908;37.880;2023-08-21T17:31:54;171.55;;;53.50;;
76589;SDS011;65471;55.908;37.880;2023-08-21T17:34:21;142.48;;;42.00;;
76589;SDS011;65471;55.908;37.880;2023-08-21T17:36:48;95.22;;;28.30;;
76589;SDS011;65471;55.908;37.880;2023-08-21T17:39:17;76.95;;;23.73;;
76589;SDS011;65471;55.908;37.880;2023-08-21T17:41:44;80.75;;;24.05;;
76589;SDS011;65471;55.908;37.880;2023-08-21T17:44:11;64.95;;;22.38;;
76589;SDS011;65471;55.908;37.880;2023-08-21T17:46:38;74.28;;;19.90;;
76589;SDS011;65471;55.908;37.880;2023-08-21T17:49:05;63.67;;;18.58;;
76589;SDS011;65471;55.908;37.880;2023-08-21T17:51:32;53.65;;;17.73;;
76589;SDS011;65471;55.908;37.880;2023-08-21T17:53:59;54.60;;;17.77;;
76589;SDS011;65471;55.908;37.880;2023-08-21T17:56:26;53.20;;;18.48;;
76589;SDS011;65471;55.908;37.880;2023-08-21T17:58:53;44.30;;;17.33;;
76589;SDS011;65471;55.908;37.880;2023-08-21T18:01:20;73.35;;;17.88;;
76589;SDS011;65471;55.908;37.880;2023-08-21T18:03:47;61.17;;;17.25;;
76589;SDS011;65471;55.908;37.880;2023-08-21T18:06:14;67.97;;;18.00;;
76589;SDS011;65471;55.908;37.880;2023-08-21T18:08:42;38.92;;;17.15;;
76589;SDS011;65471;55.908;37.880;2023-08-21T18:11:09;44.70;;;16.80;;
76589;SDS011;65471;55.908;37.880;2023-08-21T18:13:36;61.95;;;17.65;;
76589;SDS011;65471;55.908;37.880;2023-08-21T18:16:03;66.47;;;18.35;;
76589;SDS011;65471;55.908;37.880;2023-08-21T18:18:30;45.85;;;17.05;;
76589;SDS011;65471;55.908;37.880;2023-08-21T18:20:57;39.33;;;15.73;;
76589;SDS011;65471;55.908;37.880;2023-08-21T18:23:25;45.80;;;16.85;;
76589;SDS011;65471;55.908;37.880;2023-08-21T18:25:53;47.03;;;15.80;;
76589;SDS011;65471;55.908;37.880;2023-08-21T18:28:21;51.45;;;16.75;;
76589;SDS011;65471;55.908;37.880;2023-08-21T18:30:53;37.75;;;15.65;;
76589;SDS011;65471;55.908;37.880;2023-08-21T18:33:22;42.03;;;16.40;;
76589;SDS011;65471;55.908;37.880;2023-08-21T18:35:50;39.90;;;16.50;;
76589;SDS011;65471;55.908;37.880;2023-08-21T18:38:18;42.22;;;16.95;;
76589;SDS011;65471;55.908;37.880;2023-08-21T18:40:47;50.25;;;15.90;;
76589;SDS011;65471;55.908;37.880;2023-08-21T18:43:14;51.00;;;15.68;;
76589;SDS011;65471;55.908;37.880;2023-08-21T18:45:41;52.75;;;16.63;;
76589;SDS011;65471;55.908;37.880;2023-08-21T18:48:08;47.90;;;15.50;;
76589;SDS011;65471;55.908;37.880;2023-08-21T18:50:36;45.50;;;14.60;;
76589;SDS011;65471;55.908;37.880;2023-08-21T18:55:32;44.28;;;14.77;;
76589;SDS011;65471;55.908;37.880;2023-08-21T18:58:01;31.40;;;13.77;;
76589;SDS011;65471;55.908;37.880;2023-08-21T19:00:28;45.38;;;14.70;;
76589;SDS011;65471;55.908;37.880;2023-08-21T19:02:55;43.33;;;14.60;;
76589;SDS011;65471;55.908;37.880;2023-08-21T19:05:23;38.20;;;15.80;;
76589;SDS011;65471;55.908;37.880;2023-08-21T19:07:50;35.17;;;15.70;;
76589;SDS011;65471;55.908;37.880;2023-08-21T19:10:18;31.42;;;15.70;;
76589;SDS011;65471;55.908;37.880;2023-08-21T19:12:45;41.10;;;15.57;;
76589;SDS011;65471;55.908;37.880;2023-08-21T19:15:13;57.95;;;16.45;;
76589;SDS011;65471;55.908;37.880;2023-08-21T19:17:41;37.88;;;15.73;;
76589;SDS011;65471;55.908;37.880;2023-08-21T19:20:09;44.20;;;15.95;;
76589;SDS011;65471;55.908;37.880;2023-08-21T19:22:36;37.83;;;16.50;;
76589;SDS011;65471;55.908;37.880;2023-08-21T19:25:04;46.67;;;16.90;;
76589;SDS011;65471;55.908;37.880;2023-08-21T19:27:32;42.35;;;17.13;;
76589;SDS011;65471;55.908;37.880;2023-08-21T19:29:59;45.15;;;17.52;;
76589;SDS011;65471;55.908;37.880;2023-08-21T19:32:26;51.95;;;18.45;;
76589;SDS011;65471;55.908;37.880;2023-08-21T19:34:57;48.03;;;19.55;;
76589;SDS011;65471;55.908;37.880;2023-08-21T19:37:24;50.03;;;18.58;;
76589;SDS011;65471;55.908;37.880;2023-08-21T19:39:51;47.85;;;17.45;;
76589;SDS011;65471;55.908;37.880;2023-08-21T19:42:18;53.45;;;17.30;;
76589;SDS011;65471;55.908;37.880;2023-08-21T19:44:45;42.55;;;17.70;;
76589;SDS011;65471;55.908;37.880;2023-08-21T19:47:11;50.25;;;18.55;;
76589;SDS011;65471;55.908;37.880;2023-08-21T19:49:38;79.13;;;21.85;;
76589;SDS011;65471;55.908;37.880;2023-08-21T19:52:05;64.22;;;24.08;;
76589;SDS011;65471;55.908;37.880;2023-08-21T19:54:33;70.35;;;24.85;;
76589;SDS011;65471;55.908;37.880;2023-08-21T19:57:00;79.35;;;29.98;;
76589;SDS011;65471;55.908;37.880;2023-08-21T19:59:28;89.90;;;32.50;;
76589;SDS011;65471;55.908;37.880;2023-08-21T20:01:56;86.13;;;32.67;;
76589;SDS011;65471;55.908;37.880;2023-08-21T20:04:23;92.68;;;32.25;;
76589;SDS011;65471;55.908;37.880;2023-08-21T20:06:50;81.43;;;28.42;;
76589;SDS011;65471;55.908;37.880;2023-08-21T20:09:17;77.55;;;27.80;;
76589;SDS011;65471;55.908;37.880;2023-08-21T20:11:44;75.93;;;26.58;;
76589;SDS011;65471;55.908;37.880;2023-08-21T20:14:11;72.38;;;27.00;;
76589;SDS011;65471;55.908;37.880;2023-08-21T20:16:38;77.55;;;27.15;;
76589;SDS011;65471;55.908;37.880;2023-08-21T20:19:04;72.03;;;28.35;;
76589;SDS011;65471;55.908;37.880;2023-08-21T20:21:31;71.82;;;27.65;;
76589;SDS011;65471;55.908;37.880;2023-08-21T20:23:59;59.20;;;26.23;;
76589;SDS011;65471;55.908;37.880;2023-08-21T20:26:26;65.55;;;24.85;;
76589;SDS011;65471;55.908;37.880;2023-08-21T20:28:54;65.32;;;25.40;;